sensor_id;sensor_type;location;lat;lon;timestamp;temperature;humidity
57652;DHT22;43480;53.116;6.734;2022-09-01T00:01:34;14.30;99.90
57652;DHT22;43480;53.116;6.734;2022-09-01T00:04:02;14.20;99.90
57652;DHT22;43480;53.116;6.734;2022-09-01T00:06:29;14.10;99.90
57652;DHT22;43480;53.116;6.734;2022-09-01T00:08:56;14.10;99.90
57652;DHT22;43480;53.116;6.734;2022-09-01T00:11:22;14.00;99.90
57652;DHT22;43480;53.116;6.734;2022-09-01T00:13:48;13.90;99.90
57652;DHT22;43480;53.116;6.734;2022-09-01T00:16:15;13.80;99.90
57652;DHT22;43480;53.116;6.734;2022-09-01T00:18:42;13.70;99.90
57652;DHT22;43480;53.116;6.734;2022-09-01T00:21:10;13.70;99.90
57652;DHT22;43480;53.116;6.734;2022-09-01T00:23:36;13.50;99.90
57652;DHT22;43480;53.116;6.734;2022-09-01T00:26:02;13.50;99.90
57652;DHT22;43480;53.116;6.734;2022-09-01T00:28:27;13.50;99.90
57652;DHT22;43480;53.116;6.734;2022-09-01T00:30:53;13.40;99.90
57652;DHT22;43480;53.116;6.734;2022-09-01T00:33:18;13.40;99.90
57652;DHT22;43480;53.116;6.734;2022-09-01T00:35:44;13.40;99.90
57652;DHT22;43480;53.116;6.734;2022-09-01T00:38:09;13.40;99.90
57652;DHT22;43480;53.116;6.734;2022-09-01T00:40:35;13.40;99.90
57652;DHT22;43480;53.116;6.734;2022-09-01T00:43:09;13.30;99.90
57652;DHT22;43480;53.116;6.734;2022-09-01T00:45:35;13.30;99.90
57652;DHT22;43480;53.116;6.734;2022-09-01T00:48:00;13.30;99.90
57652;DHT22;43480;53.116;6.734;2022-09-01T00:50:30;13.20;99.90
57652;DHT22;43480;53.116;6.734;2022-09-01T00:52:56;13.20;99.90
57652;DHT22;43480;53.116;6.734;2022-09-01T00:55:26;13.10;99.90
57652;DHT22;43480;53.116;6.734;2022-09-01T00:57:53;13.10;99.90
57652;DHT22;43480;53.116;6.734;2022-09-01T01:00:21;13.00;99.90
57652;DHT22;43480;53.116;6.734;2022-09-01T01:02:48;13.00;99.90
57652;DHT22;43480;53.116;6.734;2022-09-01T01:05:23;12.90;99.90
57652;DHT22;43480;53.116;6.734;2022-09-01T01:07:52;12.90;99.90
57652;DHT22;43480;53.116;6.734;2022-09-01T01:10:18;12.80;99.90
57652;DHT22;43480;53.116;6.734;2022-09-01T01:12:46;12.70;99.90
57652;DHT22;43480;53.116;6.734;2022-09-01T01:15:16;12.60;99.90
57652;DHT22;43480;53.116;6.734;2022-09-01T01:17:42;12.60;99.90
57652;DHT22;43480;53.116;6.734;2022-09-01T01:20:08;12.60;99.90
57652;DHT22;43480;53.116;6.734;2022-09-01T01:25:45;12.50;99.90
57652;DHT22;43480;53.116;6.734;2022-09-01T01:30:49;12.50;99.90
57652;DHT22;43480;53.116;6.734;2022-09-01T01:33:20;12.50;99.90
57652;DHT22;43480;53.116;6.734;2022-09-01T01:35:47;12.50;99.90
57652;DHT22;43480;53.116;6.734;2022-09-01T01:38:12;12.50;99.90
57652;DHT22;43480;53.116;6.734;2022-09-01T01:40:38;12.40;99.90
57652;DHT22;43480;53.116;6.734;2022-09-01T01:43:06;12.40;99.90
57652;DHT22;43480;53.116;6.734;2022-09-01T01:45:32;12.40;99.90
57652;DHT22;43480;53.116;6.734;2022-09-01T01:47:57;12.40;99.90
57652;DHT22;43480;53.116;6.734;2022-09-01T01:50:24;12.40;99.90
57652;DHT22;43480;53.116;6.734;2022-09-01T01:52:51;12.40;99.90
57652;DHT22;43480;53.116;6.734;2022-09-01T01:55:17;12.30;99.90
57652;DHT22;43480;53.116;6.734;2022-09-01T01:57:44;12.30;99.90
57652;DHT22;43480;53.116;6.734;2022-09-01T02:00:15;12.20;99.90
57652;DHT22;43480;53.116;6.734;2022-09-01T02:02:47;12.10;99.90
57652;DHT22;43480;53.116;6.734;2022-09-01T02:05:22;12.10;99.90
57652;DHT22;43480;53.116;6.734;2022-09-01T02:07:53;12.00;99.90
57652;DHT22;43480;53.116;6.734;2022-09-01T02:10:27;12.00;99.90
57652;DHT22;43480;53.116;6.734;2022-09-01T02:12:56;12.00;99.90
57652;DHT22;43480;53.116;6.734;2022-09-01T02:15:29;12.00;99.90
57652;DHT22;43480;53.116;6.734;2022-09-01T02:17:56;12.00;99.90
57652;DHT22;43480;53.116;6.734;2022-09-01T02:20:25;12.00;99.90
57652;DHT22;43480;53.116;6.734;2022-09-01T02:22:53;12.00;99.90
57652;DHT22;43480;53.116;6.734;2022-09-01T02:25:20;12.00;99.90
57652;DHT22;43480;53.116;6.734;2022-09-01T02:27:46;12.00;99.90
57652;DHT22;43480;53.116;6.734;2022-09-01T02:30:15;12.00;99.90
57652;DHT22;43480;53.116;6.734;2022-09-01T02:32:41;12.10;99.90
57652;DHT22;43480;53.116;6.734;2022-09-01T02:35:07;12.10;99.90
57652;DHT22;43480;53.116;6.734;2022-09-01T02:37:35;12.20;99.90
57652;DHT22;43480;53.116;6.734;2022-09-01T02:40:01;12.20;99.90
57652;DHT22;43480;53.116;6.734;2022-09-01T02:42:26;12.20;99.90
57652;DHT22;43480;53.116;6.734;2022-09-01T02:44:54;12.30;99.90
57652;DHT22;43480;53.116;6.734;2022-09-01T02:47:23;12.30;99.90
57652;DHT22;43480;53.116;6.734;2022-09-01T02:49:51;12.30;99.90
57652;DHT22;43480;53.116;6.734;2022-09-01T02:52:17;12.30;99.90
57652;DHT22;43480;53.116;6.734;2022-09-01T02:54:45;12.30;99.90
57652;DHT22;43480;53.116;6.734;2022-09-01T02:57:11;12.30;99.90
57652;DHT22;43480;53.116;6.734;2022-09-01T02:59:37;12.30;99.90
57652;DHT22;43480;53.116;6.734;2022-09-01T03:02:02;12.20;99.90
57652;DHT22;43480;53.116;6.734;2022-09-01T03:04:28;12.20;99.90
57652;DHT22;43480;53.116;6.734;2022-09-01T03:06:57;12.20;99.90
57652;DHT22;43480;53.116;6.734;2022-09-01T03:09:23;12.20;99.90
57652;DHT22;43480;53.116;6.734;2022-09-01T03:11:49;12.30;99.90
57652;DHT22;43480;53.116;6.734;2022-09-01T03:14:16;12.40;99.90
57652;DHT22;43480;53.116;6.734;2022-09-01T03:16:42;12.50;99.90
57652;DHT22;43480;53.116;6.734;2022-09-01T03:19:08;12.60;99.90
57652;DHT22;43480;53.116;6.734;2022-09-01T03:21:36;12.60;99.90
57652;DHT22;43480;53.116;6.734;2022-09-01T03:24:04;12.70;99.90
57652;DHT22;43480;53.116;6.734;2022-09-01T03:26:29;12.70;99.90
57652;DHT22;43480;53.116;6.734;2022-09-01T03:28:55;12.60;99.90
57652;DHT22;43480;53.116;6.734;2022-09-01T03:31:21;12.60;99.90
57652;DHT22;43480;53.116;6.734;2022-09-01T03:33:46;12.50;99.90
57652;DHT22;43480;53.116;6.734;2022-09-01T03:36:12;12.40;99.90
57652;DHT22;43480;53.116;6.734;2022-09-01T03:38:47;12.40;99.90
57652;DHT22;43480;53.116;6.734;2022-09-01T03:41:13;12.30;99.90
57652;DHT22;43480;53.116;6.734;2022-09-01T03:43:39;12.20;99.90
57652;DHT22;43480;53.116;6.734;2022-09-01T03:46:05;12.10;99.90
57652;DHT22;43480;53.116;6.734;2022-09-01T03:48:31;12.10;99.90
57652;DHT22;43480;53.116;6.734;2022-09-01T03:50:57;12.10;99.90
57652;DHT22;43480;53.116;6.734;2022-09-01T03:53:27;12.00;99.90
57652;DHT22;43480;53.116;6.734;2022-09-01T03:55:52;12.00;99.90
57652;DHT22;43480;53.116;6.734;2022-09-01T03:58:19;11.90;99.90
57652;DHT22;43480;53.116;6.734;2022-09-01T04:00:55;11.80;99.90
57652;DHT22;43480;53.116;6.734;2022-09-01T04:03:22;11.70;99.90
57652;DHT22;43480;53.116;6.734;2022-09-01T04:05:49;11.60;99.90
57652;DHT22;43480;53.116;6.734;2022-09-01T04:08:16;11.60;99.90
57652;DHT22;43480;53.116;6.734;2022-09-01T04:10:43;11.60;99.90
57652;DHT22;43480;53.116;6.734;2022-09-01T04:13:12;11.60;99.90
57652;DHT22;43480;53.116;6.734;2022-09-01T04:15:38;11.60;99.90
57652;DHT22;43480;53.116;6.734;2022-09-01T04:18:04;11.50;99.90
57652;DHT22;43480;53.116;6.734;2022-09-01T04:20:37;11.50;99.90
57652;DHT22;43480;53.116;6.734;2022-09-01T04:25:51;11.40;99.90
57652;DHT22;43480;53.116;6.734;2022-09-01T04:28:18;11.30;99.90
57652;DHT22;43480;53.116;6.734;2022-09-01T04:30:54;11.30;99.90
57652;DHT22;43480;53.116;6.734;2022-09-01T04:33:21;11.30;99.90
57652;DHT22;43480;53.116;6.734;2022-09-01T04:35:47;11.30;99.90
57652;DHT22;43480;53.116;6.734;2022-09-01T04:38:13;11.30;99.90
57652;DHT22;43480;53.116;6.734;2022-09-01T04:40:40;11.40;99.90
57652;DHT22;43480;53.116;6.734;2022-09-01T04:43:06;11.40;99.90
57652;DHT22;43480;53.116;6.734;2022-09-01T04:45:35;11.50;99.90
57652;DHT22;43480;53.116;6.734;2022-09-01T04:48:01;11.50;99.90
57652;DHT22;43480;53.116;6.734;2022-09-01T04:50:27;11.50;99.90
57652;DHT22;43480;53.116;6.734;2022-09-01T04:52:58;11.50;99.90
57652;DHT22;43480;53.116;6.734;2022-09-01T04:55:27;11.60;99.90
57652;DHT22;43480;53.116;6.734;2022-09-01T04:57:55;11.60;99.90
57652;DHT22;43480;53.116;6.734;2022-09-01T05:00:22;11.50;99.90
57652;DHT22;43480;53.116;6.734;2022-09-01T05:02:55;11.50;99.90
57652;DHT22;43480;53.116;6.734;2022-09-01T05:05:27;11.50;99.90
57652;DHT22;43480;53.116;6.734;2022-09-01T05:07:53;11.50;99.90
57652;DHT22;43480;53.116;6.734;2022-09-01T05:10:20;11.50;99.90
57652;DHT22;43480;53.116;6.734;2022-09-01T05:12:46;11.50;99.90
57652;DHT22;43480;53.116;6.734;2022-09-01T05:15:12;11.50;99.90
57652;DHT22;43480;53.116;6.734;2022-09-01T05:17:38;11.50;99.90
57652;DHT22;43480;53.116;6.734;2022-09-01T05:20:04;11.40;99.90
57652;DHT22;43480;53.116;6.734;2022-09-01T05:22:30;11.30;99.90
57652;DHT22;43480;53.116;6.734;2022-09-01T05:24:59;11.20;99.90
57652;DHT22;43480;53.116;6.734;2022-09-01T05:27:36;11.20;99.90
57652;DHT22;43480;53.116;6.734;2022-09-01T05:30:04;11.10;99.90
57652;DHT22;43480;53.116;6.734;2022-09-01T05:32:36;11.10;99.90
57652;DHT22;43480;53.116;6.734;2022-09-01T05:35:04;11.10;99.90
57652;DHT22;43480;53.116;6.734;2022-09-01T05:37:33;11.10;99.90
57652;DHT22;43480;53.116;6.734;2022-09-01T05:40:00;11.10;99.90
57652;DHT22;43480;53.116;6.734;2022-09-01T05:42:25;11.10;99.90
57652;DHT22;43480;53.116;6.734;2022-09-01T05:44:52;11.10;99.90
57652;DHT22;43480;53.116;6.734;2022-09-01T05:47:17;11.20;99.90
57652;DHT22;43480;53.116;6.734;2022-09-01T05:49:46;11.30;99.90
57652;DHT22;43480;53.116;6.734;2022-09-01T05:52:11;11.60;99.90
57652;DHT22;43480;53.116;6.734;2022-09-01T05:54:37;11.80;99.90
57652;DHT22;43480;53.116;6.734;2022-09-01T05:57:02;12.00;99.90
57652;DHT22;43480;53.116;6.734;2022-09-01T05:59:28;12.10;99.90
57652;DHT22;43480;53.116;6.734;2022-09-01T06:01:57;12.30;99.90
57652;DHT22;43480;53.116;6.734;2022-09-01T06:04:23;12.30;99.90
57652;DHT22;43480;53.116;6.734;2022-09-01T06:06:52;12.50;99.90
57652;DHT22;43480;53.116;6.734;2022-09-01T06:09:18;12.50;99.90
57652;DHT22;43480;53.116;6.734;2022-09-01T06:11:47;12.60;99.90
57652;DHT22;43480;53.116;6.734;2022-09-01T06:14:14;12.70;99.90
57652;DHT22;43480;53.116;6.734;2022-09-01T06:16:40;12.90;99.90
57652;DHT22;43480;53.116;6.734;2022-09-01T06:19:06;13.10;99.90
57652;DHT22;43480;53.116;6.734;2022-09-01T06:21:32;13.30;99.90
57652;DHT22;43480;53.116;6.734;2022-09-01T06:23:57;13.50;99.90
57652;DHT22;43480;53.116;6.734;2022-09-01T06:26:28;13.70;99.90
57652;DHT22;43480;53.116;6.734;2022-09-01T06:28:54;13.90;99.90
57652;DHT22;43480;53.116;6.734;2022-09-01T06:31:21;14.00;99.90
57652;DHT22;43480;53.116;6.734;2022-09-01T06:33:51;14.10;99.90
57652;DHT22;43480;53.116;6.734;2022-09-01T06:36:21;14.20;99.90
57652;DHT22;43480;53.116;6.734;2022-09-01T06:38:50;14.30;99.90
57652;DHT22;43480;53.116;6.734;2022-09-01T06:41:17;14.30;99.90
57652;DHT22;43480;53.116;6.734;2022-09-01T06:43:47;14.30;99.90
57652;DHT22;43480;53.116;6.734;2022-09-01T06:46:14;14.30;99.90
57652;DHT22;43480;53.116;6.734;2022-09-01T06:48:40;14.40;99.90
57652;DHT22;43480;53.116;6.734;2022-09-01T06:51:11;14.50;99.90
57652;DHT22;43480;53.116;6.734;2022-09-01T06:53:38;14.60;99.90
57652;DHT22;43480;53.116;6.734;2022-09-01T06:56:04;14.80;99.90
57652;DHT22;43480;53.116;6.734;2022-09-01T06:58:30;14.90;99.90
57652;DHT22;43480;53.116;6.734;2022-09-01T07:00:56;15.00;99.90
57652;DHT22;43480;53.116;6.734;2022-09-01T07:03:21;15.10;99.90
57652;DHT22;43480;53.116;6.734;2022-09-01T07:05:49;15.10;99.90
57652;DHT22;43480;53.116;6.734;2022-09-01T07:08:15;15.20;99.90
57652;DHT22;43480;53.116;6.734;2022-09-01T07:10:47;15.20;99.90
57652;DHT22;43480;53.116;6.734;2022-09-01T07:13:18;15.40;99.90
57652;DHT22;43480;53.116;6.734;2022-09-01T07:15:47;15.40;99.90
57652;DHT22;43480;53.116;6.734;2022-09-01T07:18:21;15.70;99.90
57652;DHT22;43480;53.116;6.734;2022-09-01T07:20:49;16.00;99.90
57652;DHT22;43480;53.116;6.734;2022-09-01T07:23:16;16.30;99.90
57652;DHT22;43480;53.116;6.734;2022-09-01T07:25:42;16.60;99.90
57652;DHT22;43480;53.116;6.734;2022-09-01T07:28:09;16.80;99.90
57652;DHT22;43480;53.116;6.734;2022-09-01T07:30:39;17.00;99.90
57652;DHT22;43480;53.116;6.734;2022-09-01T07:33:05;17.20;99.90
57652;DHT22;43480;53.116;6.734;2022-09-01T07:35:36;17.30;99.90
57652;DHT22;43480;53.116;6.734;2022-09-01T07:38:02;17.40;99.90
57652;DHT22;43480;53.116;6.734;2022-09-01T07:40:37;17.40;99.90
57652;DHT22;43480;53.116;6.734;2022-09-01T07:43:04;17.50;99.90
57652;DHT22;43480;53.116;6.734;2022-09-01T07:45:33;17.60;99.90
57652;DHT22;43480;53.116;6.734;2022-09-01T07:48:00;17.60;99.90
57652;DHT22;43480;53.116;6.734;2022-09-01T07:50:35;17.60;99.90
57652;DHT22;43480;53.116;6.734;2022-09-01T07:53:01;17.70;99.90
57652;DHT22;43480;53.116;6.734;2022-09-01T07:55:26;17.80;99.90
57652;DHT22;43480;53.116;6.734;2022-09-01T07:57:53;17.90;99.90
57652;DHT22;43480;53.116;6.734;2022-09-01T08:00:19;17.90;99.90
57652;DHT22;43480;53.116;6.734;2022-09-01T08:02:46;18.00;99.90
57652;DHT22;43480;53.116;6.734;2022-09-01T08:05:13;18.10;99.90
57652;DHT22;43480;53.116;6.734;2022-09-01T08:07:39;18.10;99.90
57652;DHT22;43480;53.116;6.734;2022-09-01T08:10:05;18.20;99.90
57652;DHT22;43480;53.116;6.734;2022-09-01T08:12:31;18.30;99.90
57652;DHT22;43480;53.116;6.734;2022-09-01T08:14:57;18.40;99.90
57652;DHT22;43480;53.116;6.734;2022-09-01T08:17:22;18.50;99.90
57652;DHT22;43480;53.116;6.734;2022-09-01T08:19:48;18.70;99.90
57652;DHT22;43480;53.116;6.734;2022-09-01T08:22:14;18.70;99.90
57652;DHT22;43480;53.116;6.734;2022-09-01T08:24:40;18.90;99.90
57652;DHT22;43480;53.116;6.734;2022-09-01T08:27:05;19.00;99.90
57652;DHT22;43480;53.116;6.734;2022-09-01T08:29:31;19.00;99.90
57652;DHT22;43480;53.116;6.734;2022-09-01T08:31:56;19.10;99.90
57652;DHT22;43480;53.116;6.734;2022-09-01T08:34:24;19.20;99.90
57652;DHT22;43480;53.116;6.734;2022-09-01T08:36:49;19.40;99.90
57652;DHT22;43480;53.116;6.734;2022-09-01T08:39:15;19.50;99.90
57652;DHT22;43480;53.116;6.734;2022-09-01T08:41:42;19.60;99.90
57652;DHT22;43480;53.116;6.734;2022-09-01T08:47:02;19.90;99.90
57652;DHT22;43480;53.116;6.734;2022-09-01T08:49:29;20.00;99.90
57652;DHT22;43480;53.116;6.734;2022-09-01T08:54:41;20.20;99.90
57652;DHT22;43480;53.116;6.734;2022-09-01T08:57:16;20.30;99.90
57652;DHT22;43480;53.116;6.734;2022-09-01T08:59:42;20.30;99.90
57652;DHT22;43480;53.116;6.734;2022-09-01T09:07:20;20.60;99.90
57652;DHT22;43480;53.116;6.734;2022-09-01T09:09:51;20.60;99.90
57652;DHT22;43480;53.116;6.734;2022-09-01T09:17:28;20.90;99.30
57652;DHT22;43480;53.116;6.734;2022-09-01T09:19:55;21.10;98.90
57652;DHT22;43480;53.116;6.734;2022-09-01T09:22:20;21.20;98.40
57652;DHT22;43480;53.116;6.734;2022-09-01T09:27:24;21.60;96.60
57652;DHT22;43480;53.116;6.734;2022-09-01T09:29:54;21.70;95.80
57652;DHT22;43480;53.116;6.734;2022-09-01T09:32:21;21.80;96.10
57652;DHT22;43480;53.116;6.734;2022-09-01T09:34:47;22.00;95.20
57652;DHT22;43480;53.116;6.734;2022-09-01T09:37:23;22.30;95.20
57652;DHT22;43480;53.116;6.734;2022-09-01T09:40:03;22.40;94.80
57652;DHT22;43480;53.116;6.734;2022-09-01T09:42:31;22.50;93.70
57652;DHT22;43480;53.116;6.734;2022-09-01T09:44:57;22.50;92.90
57652;DHT22;43480;53.116;6.734;2022-09-01T09:47:40;22.60;93.10
57652;DHT22;43480;53.116;6.734;2022-09-01T09:52:47;22.80;91.90
57652;DHT22;43480;53.116;6.734;2022-09-01T09:55:18;22.80;92.20
57652;DHT22;43480;53.116;6.734;2022-09-01T09:57:45;23.00;90.60
57652;DHT22;43480;53.116;6.734;2022-09-01T10:00:18;23.10;89.70
57652;DHT22;43480;53.116;6.734;2022-09-01T10:02:44;23.00;88.00
57652;DHT22;43480;53.116;6.734;2022-09-01T10:07:47;23.20;89.30
57652;DHT22;43480;53.116;6.734;2022-09-01T10:12:57;23.50;87.40
57652;DHT22;43480;53.116;6.734;2022-09-01T10:15:24;23.30;83.10
57652;DHT22;43480;53.116;6.734;2022-09-01T10:17:52;23.10;84.30
57652;DHT22;43480;53.116;6.734;2022-09-01T10:20:19;23.20;84.70
57652;DHT22;43480;53.116;6.734;2022-09-01T10:22:47;23.20;82.30
57652;DHT22;43480;53.116;6.734;2022-09-01T10:25:21;23.10;84.00
57652;DHT22;43480;53.116;6.734;2022-09-01T10:27:49;23.20;82.70
57652;DHT22;43480;53.116;6.734;2022-09-01T10:30:17;23.10;79.90
57652;DHT22;43480;53.116;6.734;2022-09-01T10:32:44;23.10;78.50
57652;DHT22;43480;53.116;6.734;2022-09-01T10:35:15;23.30;79.00
57652;DHT22;43480;53.116;6.734;2022-09-01T10:37:43;23.40;81.40
57652;DHT22;43480;53.116;6.734;2022-09-01T10:40:13;23.40;78.80
57652;DHT22;43480;53.116;6.734;2022-09-01T10:42:40;23.40;80.60
57652;DHT22;43480;53.116;6.734;2022-09-01T10:45:15;23.70;78.40
57652;DHT22;43480;53.116;6.734;2022-09-01T10:47:43;24.00;77.00
57652;DHT22;43480;53.116;6.734;2022-09-01T10:50:25;23.90;75.90
57652;DHT22;43480;53.116;6.734;2022-09-01T10:52:52;23.70;75.70
57652;DHT22;43480;53.116;6.734;2022-09-01T10:55:18;23.70;76.90
57652;DHT22;43480;53.116;6.734;2022-09-01T11:18:47;24.20;69.60
57652;DHT22;43480;53.116;6.734;2022-09-01T11:21:28;24.60;69.00
57652;DHT22;43480;53.116;6.734;2022-09-01T11:26:45;25.10;68.50
57652;DHT22;43480;53.116;6.734;2022-09-01T11:31:55;26.00;65.50
57652;DHT22;43480;53.116;6.734;2022-09-01T11:34:22;26.40;64.20
57652;DHT22;43480;53.116;6.734;2022-09-01T11:36:58;26.60;62.80
57652;DHT22;43480;53.116;6.734;2022-09-01T11:39:35;26.80;60.60
57652;DHT22;43480;53.116;6.734;2022-09-01T11:42:11;26.80;61.20
57652;DHT22;43480;53.116;6.734;2022-09-01T11:47:09;26.10;62.30
57652;DHT22;43480;53.116;6.734;2022-09-01T11:49:36;25.70;59.80
57652;DHT22;43480;53.116;6.734;2022-09-01T11:52:03;25.70;63.60
57652;DHT22;43480;53.116;6.734;2022-09-01T11:54:35;25.80;61.70
57652;DHT22;43480;53.116;6.734;2022-09-01T11:57:15;26.10;61.80
57652;DHT22;43480;53.116;6.734;2022-09-01T11:59:42;26.50;60.30
57652;DHT22;43480;53.116;6.734;2022-09-01T12:02:07;26.60;58.80
57652;DHT22;43480;53.116;6.734;2022-09-01T12:04:34;26.80;58.50
57652;DHT22;43480;53.116;6.734;2022-09-01T12:07:04;27.10;58.90
57652;DHT22;43480;53.116;6.734;2022-09-01T12:09:35;27.30;57.10
57652;DHT22;43480;53.116;6.734;2022-09-01T12:12:04;26.90;57.20
57652;DHT22;43480;53.116;6.734;2022-09-01T12:14:29;26.10;56.30
57652;DHT22;43480;53.116;6.734;2022-09-01T12:16:58;25.50;58.00
57652;DHT22;43480;53.116;6.734;2022-09-01T12:19:25;25.30;60.00
57652;DHT22;43480;53.116;6.734;2022-09-01T12:21:59;25.70;60.30
57652;DHT22;43480;53.116;6.734;2022-09-01T12:24:33;26.20;59.60
57652;DHT22;43480;53.116;6.734;2022-09-01T12:26:59;26.60;56.60
57652;DHT22;43480;53.116;6.734;2022-09-01T12:29:25;26.90;57.60
57652;DHT22;43480;53.116;6.734;2022-09-01T12:31:51;27.20;56.20
57652;DHT22;43480;53.116;6.734;2022-09-01T12:39:46;27.90;55.40
57652;DHT22;43480;53.116;6.734;2022-09-01T12:44:45;28.50;55.20
57652;DHT22;43480;53.116;6.734;2022-09-01T12:47:13;28.30;53.00
57652;DHT22;43480;53.116;6.734;2022-09-01T12:52:25;27.90;55.20
57652;DHT22;43480;53.116;6.734;2022-09-01T12:55:06;27.40;53.20
57652;DHT22;43480;53.116;6.734;2022-09-01T12:57:37;27.10;54.40
57652;DHT22;43480;53.116;6.734;2022-09-01T13:02:36;27.70;53.90
57652;DHT22;43480;53.116;6.734;2022-09-01T13:07:46;27.90;54.00
57652;DHT22;43480;53.116;6.734;2022-09-01T13:10:12;28.10;53.40
57652;DHT22;43480;53.116;6.734;2022-09-01T13:12:39;28.40;53.60
57652;DHT22;43480;53.116;6.734;2022-09-01T13:15:06;28.40;54.20
57652;DHT22;43480;53.116;6.734;2022-09-01T13:17:32;28.40;53.00
57652;DHT22;43480;53.116;6.734;2022-09-01T13:19:57;28.60;53.20
57652;DHT22;43480;53.116;6.734;2022-09-01T13:22:23;28.70;52.10
57652;DHT22;43480;53.116;6.734;2022-09-01T13:24:49;28.70;51.90
57652;DHT22;43480;53.116;6.734;2022-09-01T13:27:14;28.30;52.60
57652;DHT22;43480;53.116;6.734;2022-09-01T13:29:40;27.80;53.70
57652;DHT22;43480;53.116;6.734;2022-09-01T13:32:06;27.30;54.30
57652;DHT22;43480;53.116;6.734;2022-09-01T13:34:33;27.00;54.50
57652;DHT22;43480;53.116;6.734;2022-09-01T13:36:59;26.90;56.30
57652;DHT22;43480;53.116;6.734;2022-09-01T13:39:24;26.70;55.50
57652;DHT22;43480;53.116;6.734;2022-09-01T13:41:50;26.50;55.60
57652;DHT22;43480;53.116;6.734;2022-09-01T13:44:15;26.40;55.90
57652;DHT22;43480;53.116;6.734;2022-09-01T13:46:42;26.60;54.90
57652;DHT22;43480;53.116;6.734;2022-09-01T13:49:07;26.90;55.70
57652;DHT22;43480;53.116;6.734;2022-09-01T13:51:33;27.30;54.30
57652;DHT22;43480;53.116;6.734;2022-09-01T13:54:00;27.90;54.40
57652;DHT22;43480;53.116;6.734;2022-09-01T13:56:26;28.40;54.70
57652;DHT22;43480;53.116;6.734;2022-09-01T13:58:51;28.80;51.70
57652;DHT22;43480;53.116;6.734;2022-09-01T14:01:17;29.10;52.00
57652;DHT22;43480;53.116;6.734;2022-09-01T14:03:43;29.30;51.20
57652;DHT22;43480;53.116;6.734;2022-09-01T14:06:08;29.00;50.20
57652;DHT22;43480;53.116;6.734;2022-09-01T14:08:34;28.30;50.80
57652;DHT22;43480;53.116;6.734;2022-09-01T14:10:59;27.80;52.40
57652;DHT22;43480;53.116;6.734;2022-09-01T14:13:25;27.40;52.80
57652;DHT22;43480;53.116;6.734;2022-09-01T14:15:51;27.00;52.90
57652;DHT22;43480;53.116;6.734;2022-09-01T14:18:17;26.80;52.80
57652;DHT22;43480;53.116;6.734;2022-09-01T14:20:47;27.00;54.20
57652;DHT22;43480;53.116;6.734;2022-09-01T14:23:15;27.50;53.20
57652;DHT22;43480;53.116;6.734;2022-09-01T14:25:46;28.10;53.10
57652;DHT22;43480;53.116;6.734;2022-09-01T14:28:13;28.40;51.20
57652;DHT22;43480;53.116;6.734;2022-09-01T14:30:39;28.50;51.60
57652;DHT22;43480;53.116;6.734;2022-09-01T14:33:05;28.20;49.60
57652;DHT22;43480;53.116;6.734;2022-09-01T14:35:32;27.70;50.90
57652;DHT22;43480;53.116;6.734;2022-09-01T14:37:58;27.30;51.80
57652;DHT22;43480;53.116;6.734;2022-09-01T14:40:24;26.80;51.80
57652;DHT22;43480;53.116;6.734;2022-09-01T14:42:50;26.40;52.90
57652;DHT22;43480;53.116;6.734;2022-09-01T14:45:21;26.50;54.50
57652;DHT22;43480;53.116;6.734;2022-09-01T14:47:47;26.50;53.90
57652;DHT22;43480;53.116;6.734;2022-09-01T14:50:13;26.30;52.40
57652;DHT22;43480;53.116;6.734;2022-09-01T14:52:39;26.00;53.20
57652;DHT22;43480;53.116;6.734;2022-09-01T14:55:04;25.70;53.40
57652;DHT22;43480;53.116;6.734;2022-09-01T14:57:30;25.40;53.30
57652;DHT22;43480;53.116;6.734;2022-09-01T14:59:57;25.20;53.60
57652;DHT22;43480;53.116;6.734;2022-09-01T15:02:23;25.00;54.60
57652;DHT22;43480;53.116;6.734;2022-09-01T15:04:49;25.40;55.00
57652;DHT22;43480;53.116;6.734;2022-09-01T15:07:15;26.10;53.50
57652;DHT22;43480;53.116;6.734;2022-09-01T15:09:41;26.40;53.20
57652;DHT22;43480;53.116;6.734;2022-09-01T15:12:06;26.20;52.80
57652;DHT22;43480;53.116;6.734;2022-09-01T15:14:34;25.90;52.50
57652;DHT22;43480;53.116;6.734;2022-09-01T15:16:59;25.40;53.40
57652;DHT22;43480;53.116;6.734;2022-09-01T15:19:25;25.00;52.70
57652;DHT22;43480;53.116;6.734;2022-09-01T15:21:50;24.70;53.50
57652;DHT22;43480;53.116;6.734;2022-09-01T15:24:16;24.50;53.80
57652;DHT22;43480;53.116;6.734;2022-09-01T15:26:43;24.30;56.20
57652;DHT22;43480;53.116;6.734;2022-09-01T15:29:09;24.20;54.30
57652;DHT22;43480;53.116;6.734;2022-09-01T15:31:40;24.20;54.60
57652;DHT22;43480;53.116;6.734;2022-09-01T15:34:06;24.80;55.20
57652;DHT22;43480;53.116;6.734;2022-09-01T15:36:33;25.40;54.30
57652;DHT22;43480;53.116;6.734;2022-09-01T15:38:59;26.30;53.20
57652;DHT22;43480;53.116;6.734;2022-09-01T15:41:25;27.00;50.50
57652;DHT22;43480;53.116;6.734;2022-09-01T15:43:51;27.50;48.70
57652;DHT22;43480;53.116;6.734;2022-09-01T15:46:17;27.70;48.70
57652;DHT22;43480;53.116;6.734;2022-09-01T15:48:43;27.80;47.70
57652;DHT22;43480;53.116;6.734;2022-09-01T15:53:34;28.60;47.60
57652;DHT22;43480;53.116;6.734;2022-09-01T15:55:59;29.10;47.50
57652;DHT22;43480;53.116;6.734;2022-09-01T15:58:25;29.60;47.70
57652;DHT22;43480;53.116;6.734;2022-09-01T16:00:50;29.90;45.90
57652;DHT22;43480;53.116;6.734;2022-09-01T16:03:16;29.90;44.10
57652;DHT22;43480;53.116;6.734;2022-09-01T16:05:41;29.90;43.60
57652;DHT22;43480;53.116;6.734;2022-09-01T16:08:08;30.10;44.60
57652;DHT22;43480;53.116;6.734;2022-09-01T16:10:34;30.40;43.20
57652;DHT22;43480;53.116;6.734;2022-09-01T16:13:00;30.20;42.20
57652;DHT22;43480;53.116;6.734;2022-09-01T16:15:26;29.50;43.00
57652;DHT22;43480;53.116;6.734;2022-09-01T16:20:25;27.40;45.40
57652;DHT22;43480;53.116;6.734;2022-09-01T16:25:35;26.00;47.60
57652;DHT22;43480;53.116;6.734;2022-09-01T16:28:06;25.70;48.00
57652;DHT22;43480;53.116;6.734;2022-09-01T16:30:34;25.50;48.60
57652;DHT22;43480;53.116;6.734;2022-09-01T16:33:01;25.70;49.70
57652;DHT22;43480;53.116;6.734;2022-09-01T16:35:30;25.60;50.20
57652;DHT22;43480;53.116;6.734;2022-09-01T16:38:08;25.40;50.20
57652;DHT22;43480;53.116;6.734;2022-09-01T16:40:46;25.20;51.00
57652;DHT22;43480;53.116;6.734;2022-09-01T16:43:19;25.00;51.10
57652;DHT22;43480;53.116;6.734;2022-09-01T16:45:55;24.90;51.30
57652;DHT22;43480;53.116;6.734;2022-09-01T16:48:37;24.80;52.00
57652;DHT22;43480;53.116;6.734;2022-09-01T17:06:33;24.30;52.50
57652;DHT22;43480;53.116;6.734;2022-09-01T17:09:06;24.10;53.80
57652;DHT22;43480;53.116;6.734;2022-09-01T17:11:47;24.10;53.80
57652;DHT22;43480;53.116;6.734;2022-09-01T17:14:14;24.00;53.80
57652;DHT22;43480;53.116;6.734;2022-09-01T17:16:46;23.90;54.30